Wan Hai 510 — 9VJJ8 — position and weather

sailwx.info

Track history (hours):
 
Tides and Currents Weather Stations Pressure Air Temp Water Temp Dewpoint Dewpoint Depression Visibility Wind Speed Wind Dir Waves Ship Positions

Wan Hai 510

Last reported at 2014-Dec-22 14:24 UTC. Time now 2014-Dec-22 20:39 UTC.
Position N 22°32' E 119°50'.

Length 269 m; draft 10.6 m.

Type: Cargo ship. MMSI: 565741000.

Date/timePositionNaut miles runAvg speedWind from/ knotsBaromVisibWave heightAir tempDewpointWater temp
2014-Dec-22 14:24N 22°32' E 119°50'1214.1
2014-Dec-22 13:33N 22°32' E 120°03'1312.9
2014-Dec-22 12:33N 22°33' E 120°17'2 2.0
2014-Dec-22 11:33N 22°35' E 120°18'0 0.0
2014-Dec-22 10:33N 22°35' E 120°18'0 0.0
2014-Dec-22 09:33N 22°35' E 120°18'0 0.0
2014-Dec-22 08:27N 22°35' E 120°18'0 0.0
2014-Dec-22 07:33N 22°35' E 120°18'0 0.0
2014-Dec-22 06:33N 22°35' E 120°18'0 0.0
2014-Dec-22 05:33N 22°35' E 120°18'0 0.0
2014-Dec-22 04:33N 22°35' E 120°18'0 0.0
2014-Dec-22 03:27N 22°35' E 120°18'0 0.0
2014-Dec-22 02:27N 22°35' E 120°18'0 0.0
2014-Dec-22 01:33N 22°35' E 120°18'0 0.0
2014-Dec-22 00:33N 22°35' E 120°18'0 0.0
2014-Dec-21 23:33N 22°35' E 120°18'0 0.1
2014-Dec-21 22:33N 22°35' E 120°18'0 0.1
2014-Dec-21 21:33N 22°35' E 120°18'0 0.0
2014-Dec-21 20:33N 22°35' E 120°18'0 0.0
2014-Dec-21 19:33N 22°35' E 120°18'0 0.0
2014-Dec-21 18:33N 22°35' E 120°18'0 0.0
2014-Dec-21 17:27N 22°35' E 120°18'0 0.0
2014-Dec-21 16:33N 22°35' E 120°18'0 0.0
2014-Dec-21 15:33N 22°35' E 120°18'0 0.0
2014-Dec-21 14:27N 22°35' E 120°18'0 0.0
2014-Dec-21 13:33N 22°35' E 120°18'0 0.0
2014-Dec-21 12:27N 22°35' E 120°18'0 0.1
2014-Dec-21 11:33N 22°35' E 120°18'0 0.1
2014-Dec-21 10:33N 22°35' E 120°18'0 0.0
2014-Dec-21 09:33N 22°35' E 120°18'0 0.1
2014-Dec-21 08:33N 22°35' E 120°18'0 0.1
2014-Dec-21 07:33N 22°35' E 120°18'0 0.1
2014-Dec-21 06:33N 22°35' E 120°18'0 0.1
2014-Dec-21 05:33N 22°34' E 120°18'4 3.9
2014-Dec-21 04:33N 22°32' E 120°15'7 6.9
2014-Dec-21 03:33N 22°27' E 120°10'1615.7
2014-Dec-21 02:33N 22°14' E 120°01'  
2014-Dec-17 11:14N 01°15' E 104°01'1217.4
2014-Dec-17 10:32N 01°11' E 103°50'7 6.7
2014-Dec-17 09:32N 01°17' E 103°45'0 0.0
2014-Dec-17 08:09N 01°17' E 103°45'0 0.0
2014-Dec-17 06:33N 01°17' E 103°45'0 0.0
2014-Dec-17 05:33N 01°17' E 103°45'0 0.0
2014-Dec-17 04:33N 01°17' E 103°45'0 0.0
2014-Dec-17 03:30N 01°17' E 103°45'0 0.0
2014-Dec-17 02:30N 01°17' E 103°45'0 0.0
2014-Dec-17 01:27N 01°17' E 103°45'0 0.0
2014-Dec-17 00:28N 01°17' E 103°45'0 0.4
2014-Dec-16 23:33N 01°16' E 103°45'6 5.9
2014-Dec-16 22:33N 01°13' E 103°41'6 6.2
2014-Dec-16 21:32N 01°12' E 103°34'3 0.9
2014-Dec-16 18:21N 01°10' E 103°33'  
Track history (hours):
 
Tides and Currents Weather Stations Pressure Air Temp Water Temp Dewpoint Dewpoint Depression Visibility Wind Speed Wind Dir Waves Ship Positions

Wan Hai 510

Last reported at 2014-Dec-22 14:24 UTC. Time now 2014-Dec-22 20:39 UTC.
Position N 22°32' E 119°50'.

Length 269 m; draft 10.6 m.

Type: Cargo ship. MMSI: 565741000.

Date/timePositionNaut miles runAvg speedWind from/ knotsBaromVisibWave heightAir tempDewpointWater temp
2014-Dec-22 14:24N 22°32' E 119°50'1214.1
2014-Dec-22 13:33N 22°32' E 120°03'1312.9
2014-Dec-22 12:33N 22°33' E 120°17'2 2.0
2014-Dec-22 11:33N 22°35' E 120°18'0 0.0
2014-Dec-22 10:33N 22°35' E 120°18'0 0.0
2014-Dec-22 09:33N 22°35' E 120°18'0 0.0
2014-Dec-22 08:27N 22°35' E 120°18'0 0.0
2014-Dec-22 07:33N 22°35' E 120°18'0 0.0
2014-Dec-22 06:33N 22°35' E 120°18'0 0.0
2014-Dec-22 05:33N 22°35' E 120°18'0 0.0
2014-Dec-22 04:33N 22°35' E 120°18'0 0.0
2014-Dec-22 03:27N 22°35' E 120°18'0 0.0
2014-Dec-22 02:27N 22°35' E 120°18'0 0.0
2014-Dec-22 01:33N 22°35' E 120°18'0 0.0
2014-Dec-22 00:33N 22°35' E 120°18'0 0.0
2014-Dec-21 23:33N 22°35' E 120°18'0 0.1
2014-Dec-21 22:33N 22°35' E 120°18'0 0.1
2014-Dec-21 21:33N 22°35' E 120°18'0 0.0
2014-Dec-21 20:33N 22°35' E 120°18'0 0.0
2014-Dec-21 19:33N 22°35' E 120°18'0 0.0
2014-Dec-21 18:33N 22°35' E 120°18'0 0.0
2014-Dec-21 17:27N 22°35' E 120°18'0 0.0
2014-Dec-21 16:33N 22°35' E 120°18'0 0.0
2014-Dec-21 15:33N 22°35' E 120°18'0 0.0
2014-Dec-21 14:27N 22°35' E 120°18'0 0.0
2014-Dec-21 13:33N 22°35' E 120°18'0 0.0
2014-Dec-21 12:27N 22°35' E 120°18'0 0.1
2014-Dec-21 11:33N 22°35' E 120°18'0 0.1
2014-Dec-21 10:33N 22°35' E 120°18'0 0.0
2014-Dec-21 09:33N 22°35' E 120°18'0 0.1
2014-Dec-21 08:33N 22°35' E 120°18'0 0.1
2014-Dec-21 07:33N 22°35' E 120°18'0 0.1
2014-Dec-21 06:33N 22°35' E 120°18'0 0.1
2014-Dec-21 05:33N 22°34' E 120°18'4 3.9
2014-Dec-21 04:33N 22°32' E 120°15'7 6.9
2014-Dec-21 03:33N 22°27' E 120°10'1615.7
2014-Dec-21 02:33N 22°14' E 120°01'  
2014-Dec-17 11:14N 01°15' E 104°01'1217.4
2014-Dec-17 10:32N 01°11' E 103°50'7 6.7
2014-Dec-17 09:32N 01°17' E 103°45'0 0.0
2014-Dec-17 08:09N 01°17' E 103°45'0 0.0
2014-Dec-17 06:33N 01°17' E 103°45'0 0.0
2014-Dec-17 05:33N 01°17' E 103°45'0 0.0
2014-Dec-17 04:33N 01°17' E 103°45'0 0.0
2014-Dec-17 03:30N 01°17' E 103°45'0 0.0
2014-Dec-17 02:30N 01°17' E 103°45'0 0.0
2014-Dec-17 01:27N 01°17' E 103°45'0 0.0
2014-Dec-17 00:28N 01°17' E 103°45'0 0.4
2014-Dec-16 23:33N 01°16' E 103°45'6 5.9
2014-Dec-16 22:33N 01°13' E 103°41'6 6.2
2014-Dec-16 21:32N 01°12' E 103°34'3 0.9
2014-Dec-16 18:21N 01°10' E 103°33'  

Dump ship's entire track history